sensor_id;sensor_type;location;lat;lon;timestamp;pressure;altitude;pressure_sealevel;temperature;humidity
53514;BME280;39768;54.148;12.174;2023-04-26T00:02:58;100979.91;;;9.07;84.37
53514;BME280;39768;54.148;12.174;2023-04-26T00:07:04;100980.84;;;8.92;83.35
53514;BME280;39768;54.148;12.174;2023-04-26T00:11:06;100979.06;;;9.02;83.11
53514;BME280;39768;54.148;12.174;2023-04-26T00:15:08;100979.06;;;9.02;83.15
53514;BME280;39768;54.148;12.174;2023-04-26T00:19:09;100981.72;;;9.00;84.41
53514;BME280;39768;54.148;12.174;2023-04-26T00:23:12;100985.31;;;8.75;84.55
53514;BME280;39768;54.148;12.174;2023-04-26T00:27:15;100985.31;;;8.72;85.77
53514;BME280;39768;54.148;12.174;2023-04-26T00:31:16;100989.75;;;8.70;85.82
53514;BME280;39768;54.148;12.174;2023-04-26T00:35:19;100982.66;;;8.81;84.98
53514;BME280;39768;54.148;12.174;2023-04-26T00:39:20;100980.81;;;9.00;83.51
53514;BME280;39768;54.148;12.174;2023-04-26T00:43:22;100985.25;;;8.92;83.56
53514;BME280;39768;54.148;12.174;2023-04-26T00:47:24;100979.16;;;8.68;84.10
53514;BME280;39768;54.148;12.174;2023-04-26T00:51:26;100976.47;;;8.83;84.63
53514;BME280;39768;54.148;12.174;2023-04-26T00:55:28;100991.38;;;9.12;84.72
53514;BME280;39768;54.148;12.174;2023-04-26T00:59:30;100994.91;;;9.11;82.78
53514;BME280;39768;54.148;12.174;2023-04-26T01:03:32;100989.59;;;9.11;83.43
53514;BME280;39768;54.148;12.174;2023-04-26T01:07:35;100995.88;;;8.76;85.83
53514;BME280;39768;54.148;12.174;2023-04-26T01:11:37;100990.59;;;8.90;84.70
53514;BME280;39768;54.148;12.174;2023-04-26T01:15:47;101002.00;;;9.03;83.09
53514;BME280;39768;54.148;12.174;2023-04-26T01:19:49;101008.22;;;8.80;85.66
53514;BME280;39768;54.148;12.174;2023-04-26T01:23:51;101015.31;;;8.74;86.37
53514;BME280;39768;54.148;12.174;2023-04-26T01:27:53;101013.53;;;8.87;84.17
53514;BME280;39768;54.148;12.174;2023-04-26T01:31:58;101017.97;;;8.74;85.92
53514;BME280;39768;54.148;12.174;2023-04-26T01:36:02;101015.28;;;8.81;86.66
53514;BME280;39768;54.148;12.174;2023-04-26T01:40:03;101021.50;;;8.71;86.11
53514;BME280;39768;54.148;12.174;2023-04-26T01:44:07;101018.84;;;8.67;86.20
53514;BME280;39768;54.148;12.174;2023-04-26T01:48:08;101019.72;;;8.72;85.57
53514;BME280;39768;54.148;12.174;2023-04-26T01:52:10;101012.59;;;9.03;84.26
53514;BME280;39768;54.148;12.174;2023-04-26T01:56:12;101016.22;;;8.71;85.40
53514;BME280;39768;54.148;12.174;2023-04-26T02:00:13;101022.38;;;8.66;84.40
53514;BME280;39768;54.148;12.174;2023-04-26T02:04:15;101019.75;;;8.57;85.29
53514;BME280;39768;54.148;12.174;2023-04-26T02:08:16;101016.16;;;8.83;85.10
53514;BME280;39768;54.148;12.174;2023-04-26T02:12:17;101019.75;;;8.51;86.74
53514;BME280;39768;54.148;12.174;2023-04-26T02:16:19;101018.88;;;8.53;87.41
53514;BME280;39768;54.148;12.174;2023-04-26T02:20:21;101013.53;;;8.77;85.84
53514;BME280;39768;54.148;12.174;2023-04-26T02:24:23;101022.38;;;8.67;88.03
53514;BME280;39768;54.148;12.174;2023-04-26T02:28:25;101027.69;;;8.73;87.47
53514;BME280;39768;54.148;12.174;2023-04-26T02:32:28;101019.72;;;8.64;88.65
53514;BME280;39768;54.148;12.174;2023-04-26T02:36:31;101005.63;;;8.67;87.92
53514;BME280;39768;54.148;12.174;2023-04-26T02:40:33;101010.91;;;8.74;87.14
53514;BME280;39768;54.148;12.174;2023-04-26T02:44:34;101011.81;;;8.51;89.27
53514;BME280;39768;54.148;12.174;2023-04-26T02:48:36;101018.84;;;8.70;90.16
53514;BME280;39768;54.148;12.174;2023-04-26T02:52:38;101014.44;;;8.72;88.83
53514;BME280;39768;54.148;12.174;2023-04-26T02:56:39;101020.59;;;8.62;88.30
53514;BME280;39768;54.148;12.174;2023-04-26T03:00:47;101021.50;;;8.73;88.08
53514;BME280;39768;54.148;12.174;2023-04-26T03:04:49;101018.88;;;8.48;87.98
53514;BME280;39768;54.148;12.174;2023-04-26T03:08:50;101024.16;;;8.55;87.23
53514;BME280;39768;54.148;12.174;2023-04-26T03:12:52;101017.91;;;8.91;88.07
53514;BME280;39768;54.148;12.174;2023-04-26T03:16:54;101024.13;;;8.62;88.18
53514;BME280;39768;54.148;12.174;2023-04-26T03:20:56;101023.28;;;8.39;91.37
53514;BME280;39768;54.148;12.174;2023-04-26T03:24:57;101030.31;;;8.67;90.40
53514;BME280;39768;54.148;12.174;2023-04-26T03:29:01;101026.78;;;8.67;88.32
53514;BME280;39768;54.148;12.174;2023-04-26T03:33:03;101021.53;;;8.56;89.08
53514;BME280;39768;54.148;12.174;2023-04-26T03:37:05;101029.47;;;8.44;88.35
53514;BME280;39768;54.148;12.174;2023-04-26T03:41:07;101027.66;;;8.64;87.05
53514;BME280;39768;54.148;12.174;2023-04-26T03:45:09;101030.31;;;8.46;86.82
53514;BME280;39768;54.148;12.174;2023-04-26T03:49:10;101035.63;;;8.46;86.16
53514;BME280;39768;54.148;12.174;2023-04-26T03:53:12;101045.34;;;8.56;85.64
53514;BME280;39768;54.148;12.174;2023-04-26T03:57:13;101053.25;;;8.64;84.82
53514;BME280;39768;54.148;12.174;2023-04-26T04:01:15;101037.38;;;8.68;85.20
53514;BME280;39768;54.148;12.174;2023-04-26T04:05:17;101048.81;;;8.76;85.23
53514;BME280;39768;54.148;12.174;2023-04-26T04:09:19;101045.34;;;8.59;85.51
53514;BME280;39768;54.148;12.174;2023-04-26T04:13:21;101055.03;;;8.56;85.78
53514;BME280;39768;54.148;12.174;2023-04-26T04:17:23;101052.41;;;8.60;85.91
53514;BME280;39768;54.148;12.174;2023-04-26T04:21:24;101058.53;;;8.83;84.43
53514;BME280;39768;54.148;12.174;2023-04-26T04:25:28;101055.91;;;8.47;84.93
53514;BME280;39768;54.148;12.174;2023-04-26T04:29:33;101061.22;;;8.59;84.23
53514;BME280;39768;54.148;12.174;2023-04-26T04:33:35;101059.44;;;8.64;83.67
53514;BME280;39768;54.148;12.174;2023-04-26T04:37:38;101063.84;;;8.62;83.42
53514;BME280;39768;54.148;12.174;2023-04-26T04:41:39;101077.06;;;8.47;84.32
53514;BME280;39768;54.148;12.174;2023-04-26T04:45:48;101082.38;;;8.39;86.21
53514;BME280;39768;54.148;12.174;2023-04-26T04:49:50;101083.28;;;8.60;85.08
53514;BME280;39768;54.148;12.174;2023-04-26T04:53:55;101084.09;;;8.92;84.55
53514;BME280;39768;54.148;12.174;2023-04-26T04:57:57;101090.28;;;8.64;85.84
53514;BME280;39768;54.148;12.174;2023-04-26T05:01:59;101092.94;;;8.82;85.15
53514;BME280;39768;54.148;12.174;2023-04-26T05:06:01;101086.56;;;9.64;82.09
53514;BME280;39768;54.148;12.174;2023-04-26T05:10:03;101086.31;;;10.06;75.31
53514;BME280;39768;54.148;12.174;2023-04-26T05:14:05;101100.34;;;10.30;72.41
53514;BME280;39768;54.148;12.174;2023-04-26T05:18:07;101106.97;;;9.31;76.05
53514;BME280;39768;54.148;12.174;2023-04-26T05:22:08;101104.03;;;10.01;76.00
53514;BME280;39768;54.148;12.174;2023-04-26T05:26:13;101101.78;;;10.72;69.40
53514;BME280;39768;54.148;12.174;2023-04-26T05:30:28;101103.81;;;10.39;70.76
53514;BME280;39768;54.148;12.174;2023-04-26T05:34:59;101108.06;;;10.63;68.53
53514;BME280;39768;54.148;12.174;2023-04-26T05:39:01;101113.94;;;9.60;74.54
53514;BME280;39768;54.148;12.174;2023-04-26T05:43:03;101120.00;;;9.89;75.21
53514;BME280;39768;54.148;12.174;2023-04-26T05:47:05;101122.41;;;10.38;73.93
53514;BME280;39768;54.148;12.174;2023-04-26T05:51:06;101131.22;;;10.43;73.30
53514;BME280;39768;54.148;12.174;2023-04-26T05:55:08;101123.41;;;10.21;73.50
53514;BME280;39768;54.148;12.174;2023-04-26T05:59:10;101120.59;;;10.40;71.39
53514;BME280;39768;54.148;12.174;2023-04-26T06:03:13;101127.28;;;10.92;68.32
53514;BME280;39768;54.148;12.174;2023-04-26T06:07:16;101137.28;;;10.60;68.01
53514;BME280;39768;54.148;12.174;2023-04-26T06:11:20;101126.63;;;10.63;67.62
53514;BME280;39768;54.148;12.174;2023-04-26T06:15:22;101123.22;;;10.47;68.78
53514;BME280;39768;54.148;12.174;2023-04-26T06:19:23;101139.16;;;10.44;67.85
53514;BME280;39768;54.148;12.174;2023-04-26T06:23:25;101125.56;;;10.85;66.44
53514;BME280;39768;54.148;12.174;2023-04-26T06:27:26;101136.00;;;11.05;65.26
53514;BME280;39768;54.148;12.174;2023-04-26T06:31:29;101147.47;;;11.12;62.13
53514;BME280;39768;54.148;12.174;2023-04-26T06:35:32;101129.91;;;10.97;63.74
53514;BME280;39768;54.148;12.174;2023-04-26T06:39:33;101147.16;;;11.42;62.57
53514;BME280;39768;54.148;12.174;2023-04-26T06:43:35;101148.44;;;11.02;62.17
53514;BME280;39768;54.148;12.174;2023-04-26T06:47:40;101149.38;;;10.98;64.43
53514;BME280;39768;54.148;12.174;2023-04-26T06:51:42;101151.03;;;11.09;62.94
53514;BME280;39768;54.148;12.174;2023-04-26T06:55:44;101149.34;;;10.99;62.13
53514;BME280;39768;54.148;12.174;2023-04-26T06:59:46;101158.94;;;11.14;61.93
53514;BME280;39768;54.148;12.174;2023-04-26T07:03:47;101158.47;;;11.59;62.29
53514;BME280;39768;54.148;12.174;2023-04-26T07:07:49;101170.31;;;12.09;60.20
53514;BME280;39768;54.148;12.174;2023-04-26T07:11:51;101165.97;;;11.22;61.31
53514;BME280;39768;54.148;12.174;2023-04-26T07:15:52;101179.25;;;11.21;60.36
53514;BME280;39768;54.148;12.174;2023-04-26T07:19:53;101183.47;;;11.43;60.04
53514;BME280;39768;54.148;12.174;2023-04-26T07:23:56;101176.72;;;11.09;60.30
53514;BME280;39768;54.148;12.174;2023-04-26T07:27:58;101185.22;;;11.43;59.03
53514;BME280;39768;54.148;12.174;2023-04-26T07:31:59;101185.19;;;11.49;60.61
53514;BME280;39768;54.148;12.174;2023-04-26T07:36:01;101196.66;;;11.54;57.94
53514;BME280;39768;54.148;12.174;2023-04-26T07:40:03;101199.22;;;11.61;57.50
53514;BME280;39768;54.148;12.174;2023-04-26T07:44:05;101197.25;;;10.85;59.34
53514;BME280;39768;54.148;12.174;2023-04-26T07:48:06;101203.91;;;11.37;57.45
53514;BME280;39768;54.148;12.174;2023-04-26T07:52:08;101201.78;;;11.72;56.35
53514;BME280;39768;54.148;12.174;2023-04-26T07:56:09;101208.69;;;11.90;54.85
53514;BME280;39768;54.148;12.174;2023-04-26T08:00:11;101206.41;;;12.31;54.17
53514;BME280;39768;54.148;12.174;2023-04-26T08:04:13;101219.28;;;11.94;53.81
53514;BME280;39768;54.148;12.174;2023-04-26T08:08:15;101212.00;;;11.24;56.59
53514;BME280;39768;54.148;12.174;2023-04-26T08:12:19;101212.69;;;11.46;57.58
53514;BME280;39768;54.148;12.174;2023-04-26T08:16:20;101213.94;;;11.96;55.49
53514;BME280;39768;54.148;12.174;2023-04-26T08:20:21;101230.50;;;12.21;54.37
53514;BME280;39768;54.148;12.174;2023-04-26T08:24:23;101225.06;;;12.30;54.54
53514;BME280;39768;54.148;12.174;2023-04-26T08:28:25;101229.16;;;11.85;52.48
53514;BME280;39768;54.148;12.174;2023-04-26T08:32:26;101232.53;;;12.00;52.50
53514;BME280;39768;54.148;12.174;2023-04-26T08:36:28;101241.59;;;12.55;51.96
53514;BME280;39768;54.148;12.174;2023-04-26T08:40:29;101234.13;;;12.78;50.72
53514;BME280;39768;54.148;12.174;2023-04-26T08:44:33;101243.81;;;12.19;50.98
53514;BME280;39768;54.148;12.174;2023-04-26T08:48:36;101250.00;;;12.23;52.63
53514;BME280;39768;54.148;12.174;2023-04-26T08:52:38;101251.06;;;12.76;50.79
53514;BME280;39768;54.148;12.174;2023-04-26T08:56:41;101244.25;;;11.83;50.80
53514;BME280;39768;54.148;12.174;2023-04-26T09:00:44;101251.28;;;11.88;51.38
53514;BME280;39768;54.148;12.174;2023-04-26T09:04:47;101262.03;;;11.78;50.14
53514;BME280;39768;54.148;12.174;2023-04-26T09:08:51;101243.22;;;11.96;50.49
53514;BME280;39768;54.148;12.174;2023-04-26T09:12:55;101253.72;;;12.07;50.78
53514;BME280;39768;54.148;12.174;2023-04-26T09:16:56;101256.88;;;12.41;50.40
53514;BME280;39768;54.148;12.174;2023-04-26T09:21:02;101261.19;;;12.49;48.71
53514;BME280;39768;54.148;12.174;2023-04-26T09:25:05;101265.38;;;11.98;49.85
53514;BME280;39768;54.148;12.174;2023-04-26T09:29:15;101267.56;;;12.36;50.35
53514;BME280;39768;54.148;12.174;2023-04-26T09:33:16;101267.66;;;12.93;48.77
53514;BME280;39768;54.148;12.174;2023-04-26T09:37:19;101269.88;;;12.62;50.41
53514;BME280;39768;54.148;12.174;2023-04-26T09:41:21;101268.16;;;12.61;49.78
53514;BME280;39768;54.148;12.174;2023-04-26T09:45:22;101267.59;;;12.34;51.03
53514;BME280;39768;54.148;12.174;2023-04-26T09:49:25;101265.31;;;12.73;49.01
53514;BME280;39768;54.148;12.174;2023-04-26T09:53:28;101262.47;;;12.84;49.73
53514;BME280;39768;54.148;12.174;2023-04-26T09:57:31;101276.81;;;13.35;47.29
53514;BME280;39768;54.148;12.174;2023-04-26T10:01:32;101281.78;;;12.35;47.41
53514;BME280;39768;54.148;12.174;2023-04-26T10:05:35;101294.03;;;12.47;47.80
53514;BME280;39768;54.148;12.174;2023-04-26T10:09:37;101296.47;;;12.65;47.20
53514;BME280;39768;54.148;12.174;2023-04-26T10:13:39;101304.91;;;12.97;44.47
53514;BME280;39768;54.148;12.174;2023-04-26T10:17:41;101299.13;;;13.29;46.02
53514;BME280;39768;54.148;12.174;2023-04-26T10:21:43;101295.34;;;13.43;45.80
53514;BME280;39768;54.148;12.174;2023-04-26T10:25:46;101288.19;;;13.46;47.34
53514;BME280;39768;54.148;12.174;2023-04-26T10:34:18;101294.66;;;12.70;44.77
53514;BME280;39768;54.148;12.174;2023-04-26T10:38:20;101289.81;;;12.98;46.66
53514;BME280;39768;54.148;12.174;2023-04-26T10:42:26;101292.19;;;13.19;46.74
53514;BME280;39768;54.148;12.174;2023-04-26T10:46:36;101285.38;;;12.95;47.76
53514;BME280;39768;54.148;12.174;2023-04-26T10:55:37;101295.66;;;13.76;45.48
53514;BME280;39768;54.148;12.174;2023-04-26T10:59:39;101304.53;;;13.23;46.73
53514;BME280;39768;54.148;12.174;2023-04-26T11:08:14;101304.16;;;13.97;47.04
53514;BME280;39768;54.148;12.174;2023-04-26T11:12:16;101300.38;;;13.61;47.56
53514;BME280;39768;54.148;12.174;2023-04-26T11:16:17;101299.81;;;13.93;47.40
53514;BME280;39768;54.148;12.174;2023-04-26T11:20:19;101306.97;;;13.38;46.06
53514;BME280;39768;54.148;12.174;2023-04-26T11:24:24;101314.31;;;13.23;45.86
53514;BME280;39768;54.148;12.174;2023-04-26T11:28:26;101299.19;;;13.25;46.32
53514;BME280;39768;54.148;12.174;2023-04-26T11:32:28;101314.94;;;13.40;46.99
53514;BME280;39768;54.148;12.174;2023-04-26T11:36:29;101309.75;;;13.32;45.62
53514;BME280;39768;54.148;12.174;2023-04-26T11:40:31;101315.56;;;14.06;43.17
53514;BME280;39768;54.148;12.174;2023-04-26T11:44:33;101305.75;;;14.07;46.40
53514;BME280;39768;54.148;12.174;2023-04-26T11:48:36;101314.09;;;13.89;44.54
53514;BME280;39768;54.148;12.174;2023-04-26T11:52:39;101319.13;;;14.05;45.16
53514;BME280;39768;54.148;12.174;2023-04-26T11:56:40;101309.03;;;13.73;47.67
53514;BME280;39768;54.148;12.174;2023-04-26T12:00:58;101310.81;;;13.74;46.72
53514;BME280;39768;54.148;12.174;2023-04-26T12:05:00;101311.69;;;13.75;47.30
53514;BME280;39768;54.148;12.174;2023-04-26T12:09:04;101311.06;;;13.61;46.13
53514;BME280;39768;54.148;12.174;2023-04-26T12:13:06;101314.66;;;13.58;46.07
53514;BME280;39768;54.148;12.174;2023-04-26T12:17:07;101322.19;;;14.32;46.04
53514;BME280;39768;54.148;12.174;2023-04-26T12:21:10;101327.91;;;14.58;45.37
53514;BME280;39768;54.148;12.174;2023-04-26T12:25:12;101333.81;;;14.29;46.11
53514;BME280;39768;54.148;12.174;2023-04-26T12:29:13;101326.63;;;14.31;47.10
53514;BME280;39768;54.148;12.174;2023-04-26T12:33:14;101327.03;;;14.56;47.42
53514;BME280;39768;54.148;12.174;2023-04-26T12:37:18;101323.28;;;14.22;44.80
53514;BME280;39768;54.148;12.174;2023-04-26T12:41:19;101326.03;;;13.68;44.50
53514;BME280;39768;54.148;12.174;2023-04-26T12:45:22;101317.47;;;14.46;46.23
53514;BME280;39768;54.148;12.174;2023-04-26T12:49:24;101332.91;;;13.81;45.10
53514;BME280;39768;54.148;12.174;2023-04-26T12:53:25;101341.16;;;13.67;46.95
53514;BME280;39768;54.148;12.174;2023-04-26T12:57:27;101338.28;;;13.24;47.84
53514;BME280;39768;54.148;12.174;2023-04-26T13:01:28;101343.97;;;13.00;50.84
53514;BME280;39768;54.148;12.174;2023-04-26T13:05:30;101353.72;;;13.02;51.41
53514;BME280;39768;54.148;12.174;2023-04-26T13:09:32;101366.75;;;13.24;49.26
53514;BME280;39768;54.148;12.174;2023-04-26T13:13:34;101356.81;;;12.69;49.20
53514;BME280;39768;54.148;12.174;2023-04-26T13:17:44;101366.19;;;12.99;47.84
53514;BME280;39768;54.148;12.174;2023-04-26T13:21:46;101353.28;;;13.33;46.52
53514;BME280;39768;54.148;12.174;2023-04-26T13:25:48;101356.03;;;13.27;46.26
53514;BME280;39768;54.148;12.174;2023-04-26T13:29:49;101360.50;;;14.29;45.74
53514;BME280;39768;54.148;12.174;2023-04-26T13:33:52;101356.75;;;13.92;42.05
53514;BME280;39768;54.148;12.174;2023-04-26T13:37:54;101344.28;;;13.94;43.91
53514;BME280;39768;54.148;12.174;2023-04-26T13:41:58;101342.41;;;14.88;44.01
53514;BME280;39768;54.148;12.174;2023-04-26T13:45:59;101351.88;;;14.63;43.54
53514;BME280;39768;54.148;12.174;2023-04-26T13:50:01;101351.63;;;13.24;45.13
53514;BME280;39768;54.148;12.174;2023-04-26T13:54:03;101361.69;;;13.04;46.65
53514;BME280;39768;54.148;12.174;2023-04-26T13:58:06;101363.38;;;13.10;47.21
53514;BME280;39768;54.148;12.174;2023-04-26T14:02:07;101367.84;;;13.67;45.39
53514;BME280;39768;54.148;12.174;2023-04-26T14:06:09;101370.47;;;13.69;42.24
53514;BME280;39768;54.148;12.174;2023-04-26T14:10:10;101377.38;;;13.82;41.78
53514;BME280;39768;54.148;12.174;2023-04-26T14:14:12;101380.28;;;13.68;41.30
53514;BME280;39768;54.148;12.174;2023-04-26T14:18:15;101386.50;;;14.21;41.40
53514;BME280;39768;54.148;12.174;2023-04-26T14:22:17;101375.25;;;14.02;41.74
53514;BME280;39768;54.148;12.174;2023-04-26T14:26:19;101376.03;;;14.55;43.45
53514;BME280;39768;54.148;12.174;2023-04-26T14:30:21;101378.91;;;14.46;42.74
53514;BME280;39768;54.148;12.174;2023-04-26T14:34:24;101372.25;;;13.70;42.94
53514;BME280;39768;54.148;12.174;2023-04-26T14:38:27;101380.94;;;13.81;44.50
53514;BME280;39768;54.148;12.174;2023-04-26T14:42:28;101388.56;;;14.04;44.28
53514;BME280;39768;54.148;12.174;2023-04-26T14:46:29;101378.47;;;14.23;45.09
53514;BME280;39768;54.148;12.174;2023-04-26T14:50:37;101376.38;;;14.38;44.97
53514;BME280;39768;54.148;12.174;2023-04-26T14:54:39;101380.94;;;13.81;45.08
53514;BME280;39768;54.148;12.174;2023-04-26T14:58:41;101380.97;;;14.30;45.97
53514;BME280;39768;54.148;12.174;2023-04-26T15:02:43;101386.00;;;14.49;46.49
53514;BME280;39768;54.148;12.174;2023-04-26T15:06:45;101385.78;;;14.10;46.83
53514;BME280;39768;54.148;12.174;2023-04-26T15:10:47;101391.41;;;13.95;46.46
53514;BME280;39768;54.148;12.174;2023-04-26T15:14:48;101389.13;;;13.70;47.86
53514;BME280;39768;54.148;12.174;2023-04-26T15:18:50;101401.66;;;13.05;50.06
53514;BME280;39768;54.148;12.174;2023-04-26T15:22:51;101415.69;;;12.46;54.41
53514;BME280;39768;54.148;12.174;2023-04-26T15:26:53;101414.59;;;11.68;59.86
53514;BME280;39768;54.148;12.174;2023-04-26T15:31:04;101413.75;;;11.59;60.54
53514;BME280;39768;54.148;12.174;2023-04-26T15:35:11;101417.06;;;11.95;60.89
53514;BME280;39768;54.148;12.174;2023-04-26T15:39:13;101414.50;;;11.86;63.42
53514;BME280;39768;54.148;12.174;2023-04-26T15:43:14;101403.56;;;12.16;60.21
53514;BME280;39768;54.148;12.174;2023-04-26T15:47:16;101406.00;;;12.36;54.64
53514;BME280;39768;54.148;12.174;2023-04-26T15:51:18;101417.25;;;12.62;54.26
53514;BME280;39768;54.148;12.174;2023-04-26T15:55:19;101421.47;;;12.82;53.52
53514;BME280;39768;54.148;12.174;2023-04-26T15:59:21;101419.97;;;13.31;51.89
53514;BME280;39768;54.148;12.174;2023-04-26T16:03:22;101416.41;;;13.91;47.93
53514;BME280;39768;54.148;12.174;2023-04-26T16:07:24;101413.31;;;13.61;47.16
53514;BME280;39768;54.148;12.174;2023-04-26T16:11:26;101419.84;;;13.39;45.46
53514;BME280;39768;54.148;12.174;2023-04-26T16:15:28;101416.69;;;13.10;46.32
53514;BME280;39768;54.148;12.174;2023-04-26T16:19:30;101412.09;;;12.49;49.42
53514;BME280;39768;54.148;12.174;2023-04-26T16:23:32;101417.09;;;11.87;51.81
53514;BME280;39768;54.148;12.174;2023-04-26T16:27:34;101413.53;;;11.94;54.17
53514;BME280;39768;54.148;12.174;2023-04-26T16:31:35;101408.06;;;12.08;53.70
53514;BME280;39768;54.148;12.174;2023-04-26T16:35:37;101414.25;;;12.13;52.44
53514;BME280;39768;54.148;12.174;2023-04-26T16:39:38;101416.31;;;12.69;49.70
53514;BME280;39768;54.148;12.174;2023-04-26T16:43:39;101420.06;;;12.49;47.71
53514;BME280;39768;54.148;12.174;2023-04-26T16:47:41;101420.44;;;12.17;48.21
53514;BME280;39768;54.148;12.174;2023-04-26T16:51:42;101424.88;;;12.16;49.07
53514;BME280;39768;54.148;12.174;2023-04-26T16:55:47;101428.28;;;12.29;49.87
53514;BME280;39768;54.148;12.174;2023-04-26T16:59:49;101432.03;;;13.58;48.57
53514;BME280;39768;54.148;12.174;2023-04-26T17:03:51;101422.47;;;13.99;45.10
53514;BME280;39768;54.148;12.174;2023-04-26T17:07:52;101432.28;;;14.94;44.41
53514;BME280;39768;54.148;12.174;2023-04-26T17:11:54;101427.59;;;14.11;43.99
53514;BME280;39768;54.148;12.174;2023-04-26T17:15:55;101415.59;;;12.54;48.73
53514;BME280;39768;54.148;12.174;2023-04-26T17:19:57;101426.84;;;11.88;50.41
53514;BME280;39768;54.148;12.174;2023-04-26T17:23:59;101426.25;;;11.45;53.44
53514;BME280;39768;54.148;12.174;2023-04-26T17:28:01;101426.09;;;11.71;53.57
53514;BME280;39768;54.148;12.174;2023-04-26T17:32:03;101428.00;;;11.54;55.40
53514;BME280;39768;54.148;12.174;2023-04-26T17:36:05;101435.13;;;11.44;57.38
53514;BME280;39768;54.148;12.174;2023-04-26T17:40:07;101443.19;;;11.29;58.89
53514;BME280;39768;54.148;12.174;2023-04-26T17:44:17;101444.00;;;11.43;60.30
53514;BME280;39768;54.148;12.174;2023-04-26T17:48:21;101442.28;;;11.38;60.10
53514;BME280;39768;54.148;12.174;2023-04-26T17:52:22;101446.56;;;11.58;56.81
53514;BME280;39768;54.148;12.174;2023-04-26T17:56:24;101444.84;;;11.51;54.05
53514;BME280;39768;54.148;12.174;2023-04-26T18:00:25;101449.38;;;11.28;51.88
53514;BME280;39768;54.148;12.174;2023-04-26T18:04:27;101444.66;;;11.74;50.64
53514;BME280;39768;54.148;12.174;2023-04-26T18:08:29;101448.25;;;11.72;50.00
53514;BME280;39768;54.148;12.174;2023-04-26T18:12:30;101447.22;;;11.97;49.70
53514;BME280;39768;54.148;12.174;2023-04-26T18:16:32;101445.56;;;11.82;50.79
53514;BME280;39768;54.148;12.174;2023-04-26T18:20:36;101450.06;;;11.70;50.23
53514;BME280;39768;54.148;12.174;2023-04-26T18:24:38;101457.34;;;11.37;51.09
53514;BME280;39768;54.148;12.174;2023-04-26T18:28:39;101453.78;;;11.41;51.59
53514;BME280;39768;54.148;12.174;2023-04-26T18:32:41;101458.22;;;11.38;51.98
53514;BME280;39768;54.148;12.174;2023-04-26T18:36:42;101456.47;;;11.29;53.67
53514;BME280;39768;54.148;12.174;2023-04-26T18:40:47;101466.28;;;11.18;55.03
53514;BME280;39768;54.148;12.174;2023-04-26T18:44:49;101466.34;;;11.04;56.60
53514;BME280;39768;54.148;12.174;2023-04-26T18:48:51;101469.00;;;11.00;58.30
53514;BME280;39768;54.148;12.174;2023-04-26T18:52:52;101470.72;;;11.16;59.18
53514;BME280;39768;54.148;12.174;2023-04-26T18:56:54;101472.56;;;11.03;60.47
53514;BME280;39768;54.148;12.174;2023-04-26T19:00:55;101474.31;;;11.00;62.58
53514;BME280;39768;54.148;12.174;2023-04-26T19:04:57;101476.16;;;10.91;63.84
53514;BME280;39768;54.148;12.174;2023-04-26T19:08:59;101477.03;;;10.84;63.71
53514;BME280;39768;54.148;12.174;2023-04-26T19:13:01;101490.25;;;11.03;64.83
53514;BME280;39768;54.148;12.174;2023-04-26T19:17:02;101486.75;;;10.98;65.62
53514;BME280;39768;54.148;12.174;2023-04-26T19:21:06;101478.81;;;10.84;64.73
53514;BME280;39768;54.148;12.174;2023-04-26T19:25:08;101473.53;;;10.81;61.20
53514;BME280;39768;54.148;12.174;2023-04-26T19:29:09;101492.13;;;10.79;58.57
53514;BME280;39768;54.148;12.174;2023-04-26T19:33:11;101490.34;;;10.74;60.98
53514;BME280;39768;54.148;12.174;2023-04-26T19:37:13;101493.03;;;10.60;62.12
53514;BME280;39768;54.148;12.174;2023-04-26T19:41:15;101493.03;;;10.65;60.57
53514;BME280;39768;54.148;12.174;2023-04-26T19:45:16;101501.91;;;10.44;60.26
53514;BME280;39768;54.148;12.174;2023-04-26T19:49:20;101498.34;;;10.63;59.33
53514;BME280;39768;54.148;12.174;2023-04-26T19:53:22;101497.47;;;10.55;59.11
53514;BME280;39768;54.148;12.174;2023-04-26T19:57:23;101496.59;;;10.65;58.14
53514;BME280;39768;54.148;12.174;2023-04-26T20:01:25;101498.31;;;10.74;57.72
53514;BME280;39768;54.148;12.174;2023-04-26T20:05:27;101497.47;;;10.56;58.33
53514;BME280;39768;54.148;12.174;2023-04-26T20:09:28;101501.91;;;10.50;58.97
53514;BME280;39768;54.148;12.174;2023-04-26T20:13:30;101489.53;;;10.46;58.73
53514;BME280;39768;54.148;12.174;2023-04-26T20:17:32;101499.28;;;10.53;59.51
53514;BME280;39768;54.148;12.174;2023-04-26T20:21:33;101497.50;;;10.44;59.89
53514;BME280;39768;54.148;12.174;2023-04-26T20:25:35;101497.44;;;10.69;60.46
53514;BME280;39768;54.148;12.174;2023-04-26T20:29:36;101501.03;;;10.31;62.20
53514;BME280;39768;54.148;12.174;2023-04-26T20:33:38;101507.22;;;10.25;62.97
53514;BME280;39768;54.148;12.174;2023-04-26T20:37:39;101505.44;;;10.40;63.30
53514;BME280;39768;54.148;12.174;2023-04-26T20:41:41;101515.19;;;10.09;62.90
53514;BME280;39768;54.148;12.174;2023-04-26T20:45:42;101516.06;;;10.28;60.90
53514;BME280;39768;54.148;12.174;2023-04-26T20:49:44;101518.72;;;10.41;60.35
53514;BME280;39768;54.148;12.174;2023-04-26T20:53:45;101517.84;;;10.47;60.43
53514;BME280;39768;54.148;12.174;2023-04-26T20:57:47;101511.63;;;10.58;60.49
53514;BME280;39768;54.148;12.174;2023-04-26T21:01:48;101518.69;;;10.73;60.95
53514;BME280;39768;54.148;12.174;2023-04-26T21:05:50;101511.66;;;10.48;60.14
53514;BME280;39768;54.148;12.174;2023-04-26T21:09:51;101513.41;;;10.55;60.98